Startpagina
METAR-TAF:

METAR-TAF

Vliegvelden :

Luchthaven Pointe-Noire

Pointe-Noire, Congo

breedte: 04-49S, lengte: 011-54E, hoogte: 17 m

Actueel weer

Dit bericht is 58 minuten geleden gemaakt, om 16:00 UTC
Wind 8 kt uit het zuiden
Temperatuur 23°C
Vochtigheid 83%
Druk 1014 hPa
Zicht 10 km of meer
Weinig wolken op 800 ft
Gebroken wolken op 2300 ft

METAR: FCPP 151600Z 19008KT 9999 FEW008 BKN023 23/20 Q1014 NOSIG

Tijdstip: 17:58 (16:58 UTC)

Verwachting

Dit bericht is 5 uur en het 58 minuten geleden gemaakt, om 11:00 UTC
Verwachting geldig van 15 om 12 UTC tot 16 om 12 UTC
Wind 7 kt uit het zuiden
Zicht: 9000 m
Verspreide wolken op 1300 ft
Gebroken wolken op 2600 ft
Kans 30%
van 16 om 05 UTC tot 16 om 08 UTC
Gebroken wolken op 800 ft
Gebroken wolken op 2300 ft

TAF: FCPP 151100Z 1512/1612 18007KT 9000 SCT013 BKN026 PROB30 1605/1608 BKN008 BKN023

Waarnemingen en weersverwachtingen van meer dan 4000 vliegvelden (METAR en TAF).

De beschikbare stations zijn de gele en rode punten op de kaart.

Ga met uw muis naar het station om de naam te zien.

Klik dan om waarnemingen en weersverwachtingen te zien.

kaart wijzigen: klik op de groene knoppen met een zwart kruis om in te zoomen, op de groene knop met een streepje om uit te zoomen of op de groene pijlen voor aangrenzende kaarten.


METAR-TAF: